Time;durP1;ratioP1;P1;durP2;ratioP2;P2;SDS_P1;SDS_P2;PMS_P1;PMS_P2;Temp;Humidity;BMP_temperature;BMP_pressure;BME280_temperature;BME280_humidity;BME280_pressure;Samples;Min_cycle;Max_cycle;Signal;HPM_P1;HPM_P2
2023/05/24 00:02:06;;;;;;;12.90;8.90;;;;;;;-143.21;75.26;72135.63;5064106;28;20245;-82
2023/05/24 00:04:33;;;;;;;14.17;9.03;;;;;;;-143.21;75.54;72141.59;5073426;28;20189;-81
2023/05/24 00:07:02;;;;;;;14.23;9.60;;;;;;;-143.21;75.77;72149.53;5058992;28;20190;-80
2023/05/24 00:09:30;;;;;;;15.27;9.67;;;;;;;-143.21;75.72;72153.47;5068268;28;20190;-81
2023/05/24 00:11:57;;;;;;;14.47;9.40;;;;;;;-143.21;75.92;72147.53;5071109;28;20631;-81
2023/05/24 00:14:24;;;;;;;14.60;9.37;;;;;;;-143.21;76.46;72155.47;5053331;28;20222;-81
2023/05/24 00:16:51;;;;;;;14.97;10.27;;;;;;;-143.21;76.65;72157.44;5069083;28;20197;-81
2023/05/24 00:19:21;;;;;;;12.87;9.13;;;;;;;-143.21;76.73;72157.44;5062689;28;20202;-81
2023/05/24 00:21:48;;;;;;;18.80;9.30;;;;;;;-143.21;76.82;72169.34;5054453;28;20194;-82
2023/05/24 00:24:15;;;;;;;17.57;10.27;;;;;;;-143.21;76.63;72171.34;5073857;28;20246;-81
2023/05/24 00:26:44;;;;;;;16.10;9.30;;;;;;;-143.21;76.84;72177.28;5073487;28;20193;-81
2023/05/24 00:29:10;;;;;;;20.67;10.13;;;;;;;-143.21;76.54;72169.34;5072572;28;20194;-80
2023/05/24 00:31:37;;;;;;;16.90;9.10;;;;;;;-143.21;77.24;72171.34;5073777;28;20198;-81
2023/05/24 00:34:04;;;;;;;21.03;10.20;;;;;;;-143.21;77.36;72177.28;5073602;28;20221;-82
2023/05/24 00:36:31;;;;;;;19.80;9.37;;;;;;;-143.21;76.28;72169.34;5073300;28;20198;-81
2023/05/24 00:38:58;;;;;;;14.70;9.30;;;;;;;-143.21;76.38;72181.25;5072419;28;20200;-82
2023/05/24 00:41:25;;;;;;;22.93;9.20;;;;;;;-143.21;77.29;72195.13;5052952;28;20209;-82
2023/05/24 00:43:54;;;;;;;14.53;9.60;;;;;;;-143.21;76.96;72191.16;5052722;28;20290;-82
2023/05/24 00:46:26;;;;;;;19.93;9.90;;;;;;;-143.21;77.46;72197.13;5053318;28;20277;-82
2023/05/24 00:48:53;;;;;;;16.17;9.30;;;;;;;-143.21;77.56;72191.16;5065614;28;20185;-82
2023/05/24 00:51:20;;;;;;;15.80;9.50;;;;;;;-143.21;78.05;72201.09;5059169;28;20190;-81
2023/05/24 00:53:48;;;;;;;18.27;10.20;;;;;;;-143.21;77.73;72201.09;5052735;28;20272;-81
2023/05/24 00:56:16;;;;;;;25.20;10.53;;;;;;;-143.21;77.91;72201.09;5062808;28;20186;-82
2023/05/24 00:58:43;;;;;;;15.97;9.80;;;;;;;-143.21;77.93;72197.13;5058774;28;20198;-82
2023/05/24 01:01:13;;;;;;;19.40;9.93;;;;;;;-143.21;78.40;72207.03;5052587;28;20229;-82
2023/05/24 01:03:40;;;;;;;18.40;11.07;;;;;;;-143.21;78.42;72209.00;5052850;28;20194;-82
2023/05/24 01:06:08;;;;;;;15.70;10.30;;;;;;;-143.21;78.36;72207.03;5052690;28;20665;-81
2023/05/24 01:08:48;;;;;;;16.33;10.17;;;;;;;-143.21;78.63;72209.00;5063971;28;20624;-82
2023/05/24 01:11:23;;;;;;;19.90;10.70;;;;;;;-143.21;78.57;72212.97;5052788;28;20193;-81
2023/05/24 01:14:00;;;;;;;21.00;10.57;;;;;;;-143.21;78.08;72212.97;5058488;28;20248;-74
2023/05/24 01:16:35;;;;;;;17.30;10.27;;;;;;;-143.21;77.94;72224.88;5059995;28;20672;-74
2023/05/24 01:19:12;;;;;;;15.37;11.00;;;;;;;-143.21;78.39;72234.78;5059047;28;20197;-74
2023/05/24 01:21:55;;;;;;;19.97;10.77;;;;;;;-143.21;78.98;72240.75;5062370;28;20208;-74
2023/05/24 01:24:30;;;;;;;20.10;10.83;;;;;;;-143.21;79.10;72238.75;5060422;28;20277;-74
2023/05/24 01:27:07;;;;;;;14.63;10.63;;;;;;;-143.21;79.03;72244.72;5061208;28;20178;-74
2023/05/24 01:29:35;;;;;;;18.47;11.27;;;;;;;-143.21;79.23;72252.63;5063159;28;20213;-74
2023/05/24 01:32:03;;;;;;;19.00;11.30;;;;;;;-143.21;79.08;72254.63;5059737;28;20194;-74
2023/05/24 01:34:30;;;;;;;17.20;11.13;;;;;;;-143.21;79.03;72246.69;5058346;28;20221;-74
2023/05/24 01:36:57;;;;;;;16.33;10.83;;;;;;;-143.21;79.19;72244.72;5060607;28;20194;-74
2023/05/24 01:39:27;;;;;;;14.83;10.83;;;;;;;-143.21;79.31;72250.66;5061428;28;20621;-74
2023/05/24 01:42:06;;;;;;;16.50;10.47;;;;;;;-143.21;79.26;72242.72;5061416;28;20189;-74
2023/05/24 01:44:39;;;;;;;17.20;11.37;;;;;;;-143.21;79.28;72254.63;5059796;28;20198;-74
2023/05/24 01:47:23;;;;;;;18.53;10.70;;;;;;;-143.21;79.11;72252.63;5060498;28;20194;-74
2023/05/24 01:49:54;;;;;;;19.17;10.60;;;;;;;-143.21;79.16;72260.56;5060265;28;20189;-73
2023/05/24 01:52:23;;;;;;;20.60;11.23;;;;;;;-143.21;79.53;72262.56;5060899;28;20193;-74
2023/05/24 01:54:53;;;;;;;14.60;10.00;;;;;;;-143.21;79.15;72260.56;5059498;28;20244;-73
2023/05/24 01:57:21;;;;;;;18.80;10.27;;;;;;;-143.21;79.18;72262.56;5062666;28;20202;-73
2023/05/24 01:59:50;;;;;;;17.37;8.87;;;;;;;-143.21;78.32;72268.50;5056196;28;20191;-80
2023/05/24 02:02:17;;;;;;;22.97;9.47;;;;;;;-143.21;78.42;72276.44;5066201;28;20661;-80
2023/05/24 02:04:44;;;;;;;17.30;9.13;;;;;;;-143.21;78.85;72280.41;5052173;28;20202;-79
2023/05/24 02:07:10;;;;;;;13.03;8.10;;;;;;;-143.21;79.19;72290.31;5052316;28;20197;-80
2023/05/24 02:09:37;;;;;;;16.47;9.20;;;;;;;-143.21;79.20;72290.31;5062551;28;20221;-81
2023/05/24 02:12:05;;;;;;;19.67;9.30;;;;;;;-143.21;79.60;72290.31;5060024;28;20202;-81
2023/05/24 02:14:31;;;;;;;15.00;10.33;;;;;;;-143.21;79.82;72284.38;5059288;28;20760;-81
2023/05/24 02:17:01;;;;;;;15.77;8.90;;;;;;;-143.21;79.92;72290.31;5061893;28;20190;-81
2023/05/24 02:19:28;;;;;;;14.37;8.77;;;;;;;-143.21;79.76;72286.34;5052356;28;20281;-81
2023/05/24 02:21:55;;;;;;;15.30;8.47;;;;;;;-143.21;79.40;72282.38;5051498;28;20190;-82
2023/05/24 02:24:21;;;;;;;12.17;7.80;;;;;;;-143.21;78.85;72276.44;5061576;28;20664;-81
2023/05/24 02:26:48;;;;;;;12.33;7.83;;;;;;;-143.21;78.52;72282.38;5051421;28;20553;-83
2023/05/24 02:29:15;;;;;;;15.57;7.97;;;;;;;-143.21;78.42;72274.47;5051177;28;20279;-83
2023/05/24 02:31:42;;;;;;;14.13;8.43;;;;;;;-143.21;78.80;72274.47;5050866;28;20277;-82
2023/05/24 02:34:10;;;;;;;13.43;8.73;;;;;;;-143.21;78.95;72276.44;5064943;28;20582;-81
2023/05/24 02:36:37;;;;;;;17.27;9.57;;;;;;;-143.21;78.79;72268.50;5051814;28;20660;-81
2023/05/24 02:39:04;;;;;;;17.20;9.47;;;;;;;-143.21;78.88;72278.41;5057830;28;20211;-80
2023/05/24 02:41:31;;;;;;;15.23;8.87;;;;;;;-143.21;79.30;72282.38;5071307;28;20755;-82
2023/05/24 02:43:58;;;;;;;17.73;9.40;;;;;;;-143.21;79.15;72288.34;5070759;28;20691;-82
2023/05/24 02:46:25;;;;;;;14.63;9.67;;;;;;;-143.21;79.19;72290.31;5071573;28;20196;-81
2023/05/24 02:48:51;;;;;;;15.70;9.43;;;;;;;-143.21;79.66;72300.25;5070544;28;20676;-81
2023/05/24 02:51:20;;;;;;;18.20;10.10;;;;;;;-143.21;79.44;72300.25;5071826;28;20840;-80
2023/05/24 02:53:46;;;;;;;15.20;9.17;;;;;;;-143.21;79.56;72292.31;5071652;28;20193;-81
2023/05/24 02:56:16;;;;;;;13.57;8.80;;;;;;;-143.21;79.58;72294.28;5071120;28;20228;-83
2023/05/24 02:58:43;;;;;;;20.63;9.67;;;;;;;-143.21;79.92;72298.25;5067583;28;20198;-83
2023/05/24 03:01:11;;;;;;;21.37;10.30;;;;;;;-143.21;80.06;72308.16;5050957;28;20737;-83
2023/05/24 03:03:38;;;;;;;20.43;9.60;;;;;;;-143.21;79.97;72308.16;5051343;28;20194;-83
2023/05/24 03:06:05;;;;;;;15.30;9.27;;;;;;;-143.21;79.66;72316.09;5050700;28;20252;-83
2023/05/24 03:08:34;;;;;;;17.53;9.20;;;;;;;-143.21;79.82;72322.06;5052053;28;20637;-83
2023/05/24 03:11:00;;;;;;;17.70;8.60;;;;;;;-143.21;79.98;72322.06;5051273;28;20194;-82
2023/05/24 03:13:27;;;;;;;18.43;8.90;;;;;;;-143.21;78.94;72328.00;5051387;28;20605;-83
2023/05/24 03:15:54;;;;;;;15.03;9.50;;;;;;;-143.21;78.85;72326.00;5050552;28;20632;-83
2023/05/24 03:18:21;;;;;;;18.90;10.13;;;;;;;-143.21;78.87;72320.06;5051520;28;20194;-83
2023/05/24 03:20:48;;;;;;;19.73;10.90;;;;;;;-143.21;79.02;72328.00;5051046;28;20190;-83
2023/05/24 03:23:15;;;;;;;24.00;12.23;;;;;;;-143.21;78.71;72318.09;5055769;28;20209;-83
2023/05/24 03:25:48;;;;;;;24.13;12.27;;;;;;;-143.21;78.90;72326.00;5070939;28;20247;-84
2023/05/24 03:28:15;;;;;;;24.27;12.67;;;;;;;-143.21;78.64;72328.00;5061014;28;20205;-83
2023/05/24 03:30:41;;;;;;;22.17;12.47;;;;;;;-143.21;79.10;72331.97;5054386;28;20190;-82
2023/05/24 03:33:11;;;;;;;20.10;11.30;;;;;;;-143.21;79.11;72329.97;5053457;28;20226;-83
2023/05/24 03:35:38;;;;;;;19.00;11.43;;;;;;;-143.21;79.64;72328.00;5055492;28;20214;-84
2023/05/24 03:38:05;;;;;;;21.83;12.50;;;;;;;-143.21;79.16;72320.06;5058412;28;20260;-84
2023/05/24 03:40:33;;;;;;;21.30;12.60;;;;;;;-143.21;79.27;72318.09;5069458;28;20217;-84
2023/05/24 03:43:01;;;;;;;22.73;11.73;;;;;;;-143.21;78.98;72316.09;5062702;28;20661;-81
2023/05/24 03:45:28;;;;;;;20.07;12.23;;;;;;;-143.21;79.22;72314.13;5054038;28;20186;-82
2023/05/24 03:47:55;;;;;;;25.23;13.33;;;;;;;-143.21;79.19;72318.09;5055867;28;20285;-81
2023/05/24 03:50:21;;;;;;;26.80;12.63;;;;;;;-143.21;79.93;72320.06;5062672;28;20604;-81
2023/05/24 03:52:48;;;;;;;26.47;13.43;;;;;;;-143.21;80.00;72318.09;5068314;28;20204;-81
2023/05/24 03:55:15;;;;;;;31.97;14.20;;;;;;;-143.21;79.93;72312.13;5074393;28;20217;-80
2023/05/24 03:57:42;;;;;;;29.60;14.37;;;;;;;-143.21;79.74;72306.19;5073740;28;20190;-81
2023/05/24 04:00:11;;;;;;;24.63;14.00;;;;;;;-143.21;79.73;72308.16;5061554;28;20640;-81
2023/05/24 04:02:38;;;;;;;32.50;14.80;;;;;;;-143.21;79.76;72306.19;5074056;28;20197;-80
2023/05/24 04:05:09;;;;;;;29.83;14.60;;;;;;;-143.21;80.07;72306.19;5060829;28;20182;-81
2023/05/24 04:07:35;;;;;;;26.67;13.90;;;;;;;-143.21;79.91;72300.25;5073776;28;20671;-80
2023/05/24 04:10:03;;;;;;;29.20;13.33;;;;;;;-143.21;79.89;72296.28;5071658;28;20206;-80
2023/05/24 04:12:30;;;;;;;22.13;13.10;;;;;;;-143.21;80.36;72302.22;5073391;28;20660;-80
2023/05/24 04:14:57;;;;;;;20.67;12.03;;;;;;;-143.21;79.74;72292.31;5073621;28;20189;-82
2023/05/24 04:17:26;;;;;;;18.80;11.27;;;;;;;-143.21;79.57;72286.34;5073337;28;20201;-79
2023/05/24 04:19:52;;;;;;;22.60;13.17;;;;;;;-143.21;80.21;72290.31;5057901;28;20198;-81
2023/05/24 04:22:19;;;;;;;20.30;12.97;;;;;;;-143.21;79.97;72282.38;5053284;28;20626;-82
2023/05/24 04:24:46;;;;;;;21.80;12.40;;;;;;;-143.21;80.01;72272.47;5053197;28;20572;-81
2023/05/24 04:27:13;;;;;;;20.50;11.33;;;;;;;-143.21;79.15;72270.50;5066413;28;20599;-80
2023/05/24 04:29:41;;;;;;;20.90;11.60;;;;;;;-143.21;79.27;72272.47;5061039;28;20205;-81
2023/05/24 04:32:09;;;;;;;16.93;12.03;;;;;;;-143.21;79.26;72266.53;5053063;28;20198;-80
2023/05/24 04:34:41;;;;;;;17.27;11.93;;;;;;;-143.21;79.03;72260.56;5053086;28;20292;-79
2023/05/24 04:37:08;;;;;;;17.57;12.10;;;;;;;-143.21;79.26;72258.59;5053173;28;20268;-79
2023/05/24 04:39:35;;;;;;;17.63;12.23;;;;;;;-143.21;79.74;72264.53;5066625;28;20251;-80
2023/05/24 04:42:06;;;;;;;20.93;12.57;;;;;;;-143.21;79.80;72264.53;5066972;28;20811;-74
2023/05/24 04:44:33;;;;;;;22.77;13.10;;;;;;;-143.21;79.42;72260.56;5061768;28;20210;-74
2023/05/24 04:47:01;;;;;;;18.97;11.77;;;;;;;-143.21;79.65;72264.53;5061332;28;20186;-75
2023/05/24 04:49:28;;;;;;;20.87;11.83;;;;;;;-143.21;79.71;72258.59;5058454;28;20190;-81
2023/05/24 04:51:56;;;;;;;15.07;10.47;;;;;;;-143.21;79.26;72246.69;5062367;28;20189;-81
2023/05/24 04:54:23;;;;;;;18.77;10.97;;;;;;;-143.21;79.20;72246.69;5060826;28;20247;-81
2023/05/24 04:56:50;;;;;;;21.23;10.93;;;;;;;-143.21;79.32;72250.66;5062631;28;20221;-81
2023/05/24 04:59:17;;;;;;;15.07;10.47;;;;;;;-143.21;79.28;72240.75;5063874;28;20682;-82
2023/05/24 05:01:44;;;;;;;19.57;10.60;;;;;;;-143.21;79.04;72232.81;5061826;28;20788;-80
2023/05/24 05:04:10;;;;;;;16.90;10.60;;;;;;;-143.21;78.53;72230.81;5058543;28;20368;-81
2023/05/24 05:06:39;;;;;;;21.47;11.30;;;;;;;-143.21;78.46;72224.88;5060728;28;20192;-81
2023/05/24 05:09:09;;;;;;;17.70;10.70;;;;;;;-143.21;78.87;72220.91;5058090;28;20613;-81
2023/05/24 05:11:36;;;;;;;16.30;10.60;;;;;;;-143.21;78.83;72224.88;5066331;28;20183;-81
2023/05/24 05:14:03;;;;;;;19.23;11.37;;;;;;;-143.21;79.03;72209.00;5057649;28;20253;-81
2023/05/24 05:16:30;;;;;;;17.97;10.57;;;;;;;-143.21;78.80;72211.00;5061742;28;20209;-81
2023/05/24 05:18:57;;;;;;;20.50;10.70;;;;;;;-143.21;78.79;72209.00;5059320;28;20197;-81
2023/05/24 05:21:24;;;;;;;15.30;11.20;;;;;;;-143.21;78.13;72199.09;5061942;28;20190;-79
2023/05/24 05:23:51;;;;;;;24.03;10.97;;;;;;;-143.21;78.49;72197.13;5058363;28;20585;-75
2023/05/24 05:26:19;;;;;;;19.13;10.37;;;;;;;-143.21;77.77;72197.13;5060040;28;20214;-77
2023/05/24 05:28:45;;;;;;;18.77;11.10;;;;;;;-143.21;78.03;72187.19;5057505;28;20292;-79
2023/05/24 05:31:12;;;;;;;17.40;10.87;;;;;;;-143.21;77.38;72183.22;5061489;28;20217;-76
2023/05/24 05:33:39;;;;;;;18.00;10.53;;;;;;;-143.21;77.62;72179.25;5054794;28;20235;-78
2023/05/24 05:36:06;;;;;;;17.43;10.10;;;;;;;-143.21;76.56;72173.31;5053838;28;20216;-77
2023/05/24 05:38:33;;;;;;;15.77;10.33;;;;;;;-143.21;76.01;72163.41;5053034;28;20198;-76
2023/05/24 05:41:00;;;;;;;18.40;10.87;;;;;;;-143.21;75.77;72153.47;5054019;28;20205;-77
2023/05/24 05:43:28;;;;;;;18.80;10.60;;;;;;;-143.21;75.85;72157.44;5065950;28;20193;-77
2023/05/24 05:45:55;;;;;;;22.23;10.77;;;;;;;-143.21;75.82;72153.47;5054691;28;20683;-77
2023/05/24 05:48:21;;;;;;;17.53;10.10;;;;;;;-143.21;75.96;72153.47;5059797;28;20205;-77
2023/05/24 05:50:48;;;;;;;19.57;11.13;;;;;;;-143.21;75.66;72147.53;5059876;28;20189;-77
2023/05/24 05:53:15;;;;;;;14.77;10.20;;;;;;;-143.21;75.39;72139.59;5060039;28;20197;-76
2023/05/24 05:55:42;;;;;;;20.30;10.30;;;;;;;-143.21;75.32;72131.69;5058985;28;20217;-75
2023/05/24 05:58:09;;;;;;;19.00;10.70;;;;;;;-143.21;74.54;72125.72;5059307;28;20197;-78
2023/05/24 06:00:37;;;;;;;17.13;10.50;;;;;;;-143.21;73.38;72119.78;5059137;28;20743;-75
2023/05/24 06:03:04;;;;;;;15.10;10.90;;;;;;;-143.21;73.21;72113.81;5060264;28;20656;-75
2023/05/24 06:05:30;;;;;;;16.97;11.07;;;;;;;-143.21;73.38;72107.88;5057367;28;20205;-74
2023/05/24 06:07:57;;;;;;;19.13;11.27;;;;;;;-143.21;73.51;72103.91;5053448;28;20248;-75
2023/05/24 06:10:24;;;;;;;21.73;11.30;;;;;;;-143.21;73.30;72092.00;5058635;28;20197;-74
2023/05/24 06:12:51;;;;;;;23.40;12.07;;;;;;;-143.21;73.12;72086.06;5060481;28;20190;-74
2023/05/24 06:15:21;;;;;;;18.40;11.10;;;;;;;-143.21;72.73;72076.16;5056926;28;20198;-75
2023/05/24 06:17:50;;;;;;;14.07;10.50;;;;;;;-143.21;71.92;72070.19;5057876;28;20758;-76
2023/05/24 06:20:18;;;;;;;19.77;11.67;;;;;;;-143.21;71.54;72062.25;5059740;28;20197;-76
2023/05/24 06:22:45;;;;;;;18.07;11.23;;;;;;;-143.21;70.08;72046.41;5049005;28;20276;-75
2023/05/24 06:25:13;;;;;;;24.00;12.00;;;;;;;-143.21;70.31;72026.56;5057947;28;20267;-82
2023/05/24 06:27:40;;;;;;;26.17;11.77;;;;;;;-143.21;69.58;72014.69;5057181;28;20519;-84
2023/05/24 06:30:08;;;;;;;21.13;11.93;;;;;;;-143.21;68.97;72006.75;5057013;28;20222;-85
2023/05/24 06:32:36;;;;;;;19.43;11.50;;;;;;;-143.21;68.30;71992.88;5058661;28;20203;-82
2023/05/24 06:35:04;;;;;;;18.50;11.27;;;;;;;-143.21;68.49;71984.94;5058858;28;20627;-83
2023/05/24 06:37:32;;;;;;;18.90;12.63;;;;;;;-143.21;68.00;71971.06;5059197;28;20206;-81
2023/05/24 06:39:59;;;;;;;19.73;11.27;;;;;;;-143.21;68.04;71969.06;5058368;28;20628;-79
2023/05/24 06:42:26;;;;;;;23.40;11.57;;;;;;;-143.21;66.97;71955.19;5061256;28;20264;-78
2023/05/24 06:44:53;;;;;;;20.67;12.10;;;;;;;-143.21;66.73;71951.22;5059056;28;20250;-80
2023/05/24 06:47:21;;;;;;;19.43;11.37;;;;;;;-143.21;66.87;71945.28;5059970;28;20190;-80
2023/05/24 06:49:48;;;;;;;22.03;10.40;;;;;;;-143.21;66.50;71931.38;5057793;28;20193;-79
2023/05/24 06:52:16;;;;;;;20.27;10.80;;;;;;;-143.21;66.15;71913.53;5059176;28;20691;-79
2023/05/24 06:54:43;;;;;;;15.80;11.20;;;;;;;-143.21;66.03;71899.66;5056465;28;20198;-80
2023/05/24 06:57:10;;;;;;;23.53;11.27;;;;;;;-143.21;66.20;71893.72;5058377;28;20651;-80
2023/05/24 06:59:37;;;;;;;22.87;12.03;;;;;;;-143.21;65.96;71873.88;5057540;28;20203;-79
2023/05/24 07:02:04;;;;;;;16.67;11.83;;;;;;;-143.21;64.90;71860.00;5060985;28;20231;-80
2023/05/24 07:04:31;;;;;;;17.97;11.80;;;;;;;-143.21;65.18;71852.06;5055531;28;20201;-74
2023/05/24 07:06:58;;;;;;;16.07;10.97;;;;;;;-143.21;65.77;71848.09;5059813;28;20190;-75
2023/05/24 07:09:26;;;;;;;26.03;11.20;;;;;;;-143.21;65.84;71840.19;5055974;28;20209;-75
2023/05/24 07:11:53;;;;;;;17.33;10.30;;;;;;;-143.21;65.59;71834.22;5058531;28;20198;-75
2023/05/24 07:14:21;;;;;;;19.23;10.23;;;;;;;-143.21;65.49;71824.31;5059269;28;20204;-75
2023/05/24 07:16:48;;;;;;;17.63;10.38;;;;;;;-143.21;64.68;71812.41;5062021;28;20210;-75
2023/05/24 07:19:15;;;;;;;18.23;9.30;;;;;;;-143.21;63.01;71812.41;5065182;28;20202;-80
2023/05/24 07:21:42;;;;;;;12.97;8.87;;;;;;;-143.21;62.58;71798.53;5063770;28;20697;-80
2023/05/24 07:24:09;;;;;;;14.77;9.33;;;;;;;-143.21;63.03;71788.63;5061633;28;20620;-80
2023/05/24 07:26:37;;;;;;;15.65;9.30;;;;;;;-143.21;63.28;71778.72;5064174;28;20221;-80
2023/05/24 07:29:04;;;;;;;18.50;9.80;;;;;;;-143.21;63.61;71776.72;5062354;28;20734;-75
2023/05/24 07:31:33;;;;;;;17.27;9.65;;;;;;;-143.21;63.76;71770.78;5061111;28;20186;-75
2023/05/24 07:34:00;;;;;;;14.98;9.77;;;;;;;-143.21;64.09;71766.81;5063406;28;20198;-75
2023/05/24 07:36:31;;;;;;;14.85;8.30;;;;;;;-143.21;63.40;71750.94;5060146;28;20252;-75
2023/05/24 07:38:58;;;;;;;16.33;9.40;;;;;;;-143.21;63.15;71743.00;5064016;28;20675;-75
2023/05/24 07:41:27;;;;;;;15.77;8.98;;;;;;;-143.21;62.64;71737.06;5061767;28;20189;-74
2023/05/24 07:43:56;;;;;;;13.80;8.35;;;;;;;-143.21;62.14;71721.22;5062732;28;20229;-75
2023/05/24 07:46:22;;;;;;;13.68;7.13;;;;;;;-143.21;61.95;71703.34;5061782;28;20556;-75
2023/05/24 07:48:50;;;;;;;11.23;7.20;;;;;;;-143.21;60.97;71699.41;5062601;28;20620;-74
2023/05/24 07:51:16;;;;;;;10.50;6.55;;;;;;;-143.21;59.90;71693.44;5059959;28;20190;-75
2023/05/24 07:53:43;;;;;;;11.95;6.72;;;;;;;-143.21;59.44;71677.59;5061027;28;20597;-74
2023/05/24 07:56:10;;;;;;;13.00;6.65;;;;;;;-143.21;59.89;71667.66;5061616;28;20194;-75
2023/05/24 07:58:39;;;;;;;10.07;6.40;;;;;;;-143.21;59.69;71645.88;5061514;28;20204;-75
2023/05/24 08:01:07;;;;;;;12.60;7.00;;;;;;;-143.21;58.54;71637.94;5064409;28;20274;-80
2023/05/24 08:03:35;;;;;;;13.50;7.75;;;;;;;-143.21;57.34;71618.09;5061069;28;20811;-81
2023/05/24 08:06:02;;;;;;;14.55;7.68;;;;;;;-143.21;57.83;71610.16;5061356;28;20198;-80
2023/05/24 08:08:29;;;;;;;18.98;6.95;;;;;;;-143.21;57.18;71614.13;5071583;28;20272;-81
2023/05/24 08:10:56;;;;;;;9.45;7.15;;;;;;;-143.21;56.86;71606.22;5061856;28;20197;-80
2023/05/24 08:13:23;;;;;;;9.73;6.22;;;;;;;-143.21;56.34;71596.28;5058489;28;20194;-81
2023/05/24 08:15:50;;;;;;;10.77;5.63;;;;;;;-143.21;55.66;71588.38;5058215;28;20285;-81
2023/05/24 08:18:18;;;;;;;9.32;6.00;;;;;;;-143.21;54.58;71572.50;5071094;28;20210;-80
2023/05/24 08:20:45;;;;;;;8.40;6.15;;;;;;;-143.21;54.45;71566.56;5061190;28;20194;-80
2023/05/24 08:23:12;;;;;;;14.35;5.95;;;;;;;-143.21;53.25;71550.69;5070918;28;20205;-81
2023/05/24 08:25:39;;;;;;;12.15;6.35;;;;;;;-143.21;52.56;71542.75;5057018;28;20193;-74
2023/05/24 08:28:07;;;;;;;11.10;6.00;;;;;;;-143.21;51.11;71515.00;5062681;28;20193;-74
2023/05/24 08:30:34;;;;;;;9.15;6.22;;;;;;;-143.21;51.21;71513.03;5057012;28;20201;-74
2023/05/24 08:33:00;;;;;;;7.32;5.00;;;;;;;-143.21;50.65;71505.09;5062427;28;20252;-74
2023/05/24 08:35:29;;;;;;;11.63;5.35;;;;;;;-143.21;49.89;71497.16;5060084;28;20205;-74
2023/05/24 08:37:55;;;;;;;7.15;4.80;;;;;;;-143.21;48.59;71489.22;5061684;28;20214;-74
2023/05/24 08:40:23;;;;;;;6.55;4.55;;;;;;;-143.21;46.63;71477.34;5062011;28;20276;-74
2023/05/24 08:42:52;;;;;;;9.77;5.05;;;;;;;-143.21;46.22;71461.47;5061251;28;20190;-74
2023/05/24 08:45:21;;;;;;;10.27;4.35;;;;;;;-143.21;45.82;71449.56;5061332;28;20205;-74
2023/05/24 08:47:50;;;;;;;10.18;5.00;;;;;;;-143.21;44.30;71429.75;5060374;28;20197;-74
2023/05/24 08:50:17;;;;;;;8.50;4.57;;;;;;;-143.21;44.51;71421.81;5058206;28;20209;-74
2023/05/24 08:52:46;;;;;;;6.68;4.90;;;;;;;-143.21;44.05;71413.88;5062883;28;20194;-75
2023/05/24 08:55:14;;;;;;;8.27;4.47;;;;;;;-143.21;42.75;71392.06;5059903;28;20201;-74
2023/05/24 08:57:41;;;;;;;7.57;4.50;;;;;;;-143.21;42.91;71390.09;5060465;28;20232;-75
2023/05/24 09:00:11;;;;;;;9.50;4.82;;;;;;;-143.21;43.38;71376.22;5059350;28;20230;-75
2023/05/24 09:02:39;;;;;;;9.98;5.00;;;;;;;-143.21;44.27;71366.31;5059722;28;20252;-74
2023/05/24 09:05:10;;;;;;;17.55;5.38;;;;;;;-143.21;43.54;71356.38;5060389;28;20194;-74
2023/05/24 09:07:37;;;;;;;12.13;5.22;;;;;;;-143.21;43.45;71344.50;5062768;28;20297;-74
2023/05/24 09:10:08;;;;;;;12.20;5.75;;;;;;;-143.21;43.56;71334.59;5061823;28;20194;-75
2023/05/24 09:12:37;;;;;;;7.15;5.00;;;;;;;-143.21;43.58;71316.75;5059999;28;20197;-74
2023/05/24 09:15:06;;;;;;;9.07;5.15;;;;;;;-143.21;42.59;71304.84;5059910;28;20197;-74
2023/05/24 09:17:35;;;;;;;9.48;4.80;;;;;;;-143.21;41.96;71302.84;5059356;28;20205;-74
2023/05/24 09:20:05;;;;;;;10.30;4.82;;;;;;;-143.21;41.78;71294.94;5060100;28;20216;-74
2023/05/24 09:22:33;;;;;;;8.43;4.55;;;;;;;-143.21;42.42;71275.09;5059215;28;20700;-75
2023/05/24 09:25:01;;;;;;;13.55;4.63;;;;;;;-143.21;42.46;71263.22;5059142;28;20284;-74
2023/05/24 09:27:33;;;;;;;11.48;5.07;;;;;;;-143.21;42.58;71245.38;5059443;28;20193;-75
2023/05/24 09:30:00;;;;;;;6.47;4.30;;;;;;;-143.21;40.78;71231.50;5061113;28;20691;-74
2023/05/24 09:32:27;;;;;;;6.88;4.47;;;;;;;-143.21;40.60;71217.59;5058933;28;20194;-74
2023/05/24 09:34:57;;;;;;;6.90;4.25;;;;;;;-143.21;39.21;71201.75;5061108;28;20805;-74
2023/05/24 09:37:26;;;;;;;7.75;4.50;;;;;;;-143.21;38.92;71187.88;5057904;28;20619;-74
2023/05/24 09:39:54;;;;;;;6.50;4.32;;;;;;;-143.21;38.92;71170.03;5057397;28;20670;-74
2023/05/24 09:42:25;;;;;;;4.82;3.65;;;;;;;-143.21;39.02;71164.09;5056800;28;20193;-74
2023/05/24 09:45:00;;;;;;;11.70;4.00;;;;;;;-143.21;38.41;71152.19;5058964;28;20209;-74
2023/05/24 09:47:30;;;;;;;5.55;4.20;;;;;;;-143.21;38.03;71138.31;5058811;28;20265;-75
2023/05/24 09:49:57;;;;;;;8.48;3.65;;;;;;;-143.21;37.08;71124.44;5062146;28;20193;-75
2023/05/24 09:52:24;;;;;;;4.50;3.45;;;;;;;-143.21;37.16;71112.53;5058778;28;20196;-75
2023/05/24 09:54:51;;;;;;;5.75;3.45;;;;;;;-143.21;38.11;71092.72;5059808;28;20194;-75
2023/05/24 09:57:21;;;;;;;6.93;4.05;;;;;;;-143.21;38.13;71072.88;5057520;28;20226;-75
2023/05/24 09:59:48;;;;;;;5.47;3.70;;;;;;;-143.21;37.81;71053.06;5055626;28;20190;-73
2023/05/24 10:02:19;;;;;;;6.60;3.92;;;;;;;-143.21;37.68;71015.41;5059817;28;20213;-74
2023/05/24 10:04:46;;;;;;;7.20;3.65;;;;;;;-143.21;35.71;71005.50;5058992;28;20196;-75
2023/05/24 10:07:13;;;;;;;6.07;4.00;;;;;;;-143.21;35.37;71019.38;5056910;28;20194;-79
2023/05/24 10:09:40;;;;;;;6.97;3.58;;;;;;;-143.21;35.70;71027.28;5061445;28;20268;-79
2023/05/24 10:12:08;;;;;;;5.43;3.58;;;;;;;-143.21;35.56;71007.47;5054438;28;20326;-80
2023/05/24 10:14:36;;;;;;;8.18;3.80;;;;;;;-143.21;36.38;70993.59;5065510;28;20575;-80
2023/05/24 10:17:04;;;;;;;10.50;3.85;;;;;;;-143.21;36.90;70967.81;5058730;28;20579;-81
2023/05/24 10:19:33;;;;;;;5.43;4.18;;;;;;;-143.21;36.19;70944.03;5051986;28;20224;-80
2023/05/24 10:22:02;;;;;;;10.00;4.15;;;;;;;-143.21;35.60;70926.19;5062908;28;20267;-81
2023/05/24 10:24:33;;;;;;;4.88;3.95;;;;;;;-143.21;35.53;70902.41;5065018;28;20190;-80
2023/05/24 10:27:03;;;;;;;4.70;3.97;;;;;;;-143.21;35.69;70872.66;5067204;28;20342;-80
2023/05/24 10:29:44;;;;;;;6.15;3.83;;;;;;;-143.21;33.60;70850.88;5051443;28;20197;-80
2023/05/24 10:32:11;;;;;;;4.97;3.40;;;;;;;-143.21;33.92;70831.03;5062738;28;20197;-80
2023/05/24 10:34:41;;;;;;;7.60;3.70;;;;;;;-143.21;34.34;70809.25;5058693;28;20605;-81
2023/05/24 10:37:08;;;;;;;8.95;3.85;;;;;;;-143.21;33.93;70791.41;5057326;28;20220;-80
2023/05/24 10:39:36;;;;;;;5.38;3.45;;;;;;;-143.21;32.98;70761.66;5056344;28;20196;-80
2023/05/24 10:42:03;;;;;;;4.00;3.60;;;;;;;-143.21;33.27;70743.81;5061790;28;20247;-80
2023/05/24 10:44:30;;;;;;;5.93;3.50;;;;;;;-143.21;33.15;70724.00;5067120;28;20185;-74
2023/05/24 10:47:11;;;;;;;5.60;3.55;;;;;;;-143.21;32.95;70704.19;5058206;28;20216;-74
2023/05/24 10:49:39;;;;;;;4.93;3.45;;;;;;;-143.21;32.36;70682.38;5062995;28;20194;-74
2023/05/24 10:52:12;;;;;;;7.05;3.60;;;;;;;-143.21;32.88;70670.47;5063325;28;20194;-74
2023/05/24 10:54:40;;;;;;;6.13;3.67;;;;;;;-143.21;32.33;70658.59;5064253;28;20193;-74
2023/05/24 10:57:07;;;;;;;7.05;3.75;;;;;;;-143.21;31.68;70650.66;5060358;28;20208;-74
2023/05/24 10:59:37;;;;;;;4.75;3.45;;;;;;;-143.21;32.85;70638.75;5062229;28;20190;-75
2023/05/24 11:02:08;;;;;;;6.97;3.90;;;;;;;-143.21;32.59;70630.84;5062082;28;20281;-75
2023/05/24 11:04:38;;;;;;;6.88;4.00;;;;;;;-143.21;32.44;70638.75;5064740;28;20594;-80
2023/05/24 11:07:08;;;;;;;6.82;3.47;;;;;;;-143.21;31.80;70624.88;5059780;28;20206;-75
2023/05/24 11:09:38;;;;;;;5.53;3.47;;;;;;;-143.21;31.43;70628.84;5064560;28;20225;-75
2023/05/24 11:12:08;;;;;;;4.63;3.50;;;;;;;-143.21;32.31;70616.97;5062584;28;20272;-75